Time;durP1;ratioP1;P1;durP2;ratioP2;P2;SDS_P1;SDS_P2;PMS_P1;PMS_P2;Temp;Humidity;BMP_temperature;BMP_pressure;BME280_temperature;BME280_humidity;BME280_pressure;Samples;Min_cycle;Max_cycle;Signal;HPM_P1;HPM_P2
2023/10/03 00:00:31;;;;;;;41.88;22.85;;;17.70;99.90;;;;;;5030680;28;20036;-68
2023/10/03 00:02:59;;;;;;;39.40;21.45;;;17.70;99.90;;;;;;5017050;28;20049;-69
2023/10/03 00:05:30;;;;;;;48.10;22.92;;;17.70;99.90;;;;;;5050933;28;20040;-69
2023/10/03 00:07:57;;;;;;;44.47;22.30;;;17.70;99.90;;;;;;5027648;28;20049;-69
2023/10/03 00:10:23;;;;;;;39.72;22.70;;;17.60;99.90;;;;;;5041730;28;251656;-69
2023/10/03 00:12:51;;;;;;;45.58;24.05;;;17.60;99.90;;;;;;5031429;28;20056;-69
2023/10/03 00:15:24;;;;;;;41.95;23.10;;;17.60;99.90;;;;;;5026800;28;39739;-69
2023/10/03 00:17:52;;;;;;;44.60;23.88;;;17.60;99.90;;;;;;5030167;27;20045;-68
2023/10/03 00:20:18;;;;;;;41.88;22.88;;;17.60;99.90;;;;;;5034072;28;140067;-70
2023/10/03 00:22:49;;;;;;;43.40;23.30;;;17.60;99.90;;;;;;5039079;28;20048;-68
2023/10/03 00:25:18;;;;;;;44.33;23.77;;;17.60;99.90;;;;;;5021836;28;64333;-69
2023/10/03 00:27:46;;;;;;;43.22;22.95;;;17.60;99.90;;;;;;5041976;28;20059;-69
2023/10/03 00:30:14;;;;;;;42.72;22.33;;;17.60;99.90;;;;;;5019743;28;145884;-69
2023/10/03 00:32:42;;;;;;;43.20;23.05;;;17.60;99.90;;;;;;5056607;28;20040;-68
2023/10/03 00:35:09;;;;;;;44.45;23.30;;;17.60;99.90;;;;;;5032267;28;90194;-69
2023/10/03 00:37:37;;;;;;;44.80;23.08;;;17.60;99.90;;;;;;5053262;28;20049;-70
2023/10/03 00:43:03;;;;;;;42.17;22.48;;;17.60;99.90;;;;;;5024039;28;20052;-68
2023/10/03 00:45:30;;;;;;;40.35;21.17;;;17.60;99.90;;;;;;5045153;28;52636;-70
2023/10/03 00:47:59;;;;;;;46.15;23.45;;;17.60;99.90;;;;;;5023507;28;20048;-70
2023/10/03 00:50:26;;;;;;;41.40;22.35;;;17.60;99.90;;;;;;5031108;28;21334;-69
2023/10/03 00:53:00;;;;;;;39.92;22.15;;;17.50;99.90;;;;;;4995598;28;251116;-69
2023/10/03 00:55:28;;;;;;;44.53;22.98;;;17.60;99.90;;;;;;5048894;28;20123;-70
2023/10/03 00:58:18;;;;;;;41.42;22.92;;;17.50;99.90;;;;;;5029295;28;20642;-68
2023/10/03 01:00:49;;;;;;;41.65;22.63;;;17.50;99.90;;;;;;5033619;28;20048;-68
2023/10/03 01:03:38;;;;;;;40.10;21.65;;;17.50;99.90;;;;;;5011778;28;20048;-69
2023/10/03 01:06:12;;;;;;;43.45;23.33;;;17.50;99.90;;;;;;5057262;28;20049;-70
2023/10/03 01:08:43;;;;;;;38.22;22.25;;;17.50;99.90;;;;;;5008268;28;82047;-69
2023/10/03 01:11:32;;;;;;;40.85;22.05;;;17.50;99.90;;;;;;5046485;28;20056;-70
2023/10/03 01:13:58;;;;;;;39.47;20.63;;;17.60;99.90;;;;;;5020253;28;77786;-69
2023/10/03 01:16:36;;;;;;;43.00;22.08;;;17.60;99.90;;;;;;5062042;28;20058;-70
2023/10/03 01:19:25;;;;;;;43.90;22.95;;;17.60;99.90;;;;;;5024534;28;23317;-68
2023/10/03 01:21:52;;;;;;;43.22;22.52;;;17.60;99.90;;;;;;5059177;28;20783;-68
2023/10/03 01:24:21;;;;;;;40.33;21.50;;;17.60;99.90;;;;;;5011130;28;20554;-68
2023/10/03 01:26:47;;;;;;;41.55;21.60;;;17.50;99.90;;;;;;5052834;28;20044;-69
2023/10/03 01:29:15;;;;;;;40.92;21.42;;;17.50;99.90;;;;;;5009455;28;150753;-68
2023/10/03 01:31:41;;;;;;;41.83;21.48;;;17.50;99.90;;;;;;5058373;28;20506;-69
2023/10/03 01:34:08;;;;;;;41.03;20.95;;;17.50;99.90;;;;;;5016761;28;76942;-69
2023/10/03 01:36:34;;;;;;;39.03;21.63;;;17.40;99.90;;;;;;5048682;28;20053;-69
2023/10/03 01:39:00;;;;;;;37.25;20.20;;;17.40;99.90;;;;;;5012731;28;85835;-69
2023/10/03 01:41:26;;;;;;;44.63;21.17;;;17.40;99.90;;;;;;5056390;28;20277;-68
2023/10/03 01:43:52;;;;;;;40.38;20.90;;;17.40;99.90;;;;;;5013705;28;218502;-69
2023/10/03 01:46:18;;;;;;;38.33;19.88;;;17.40;99.90;;;;;;5049991;28;20068;-69
2023/10/03 01:48:44;;;;;;;38.25;19.65;;;17.40;99.90;;;;;;5019027;28;220259;-69
2023/10/03 01:51:10;;;;;;;37.15;19.83;;;17.40;99.90;;;;;;5055215;28;20434;-69
2023/10/03 01:53:39;;;;;;;38.17;19.65;;;17.40;99.90;;;;;;4992066;28;220516;-68
2023/10/03 01:56:06;;;;;;;39.03;19.85;;;17.40;99.90;;;;;;5048605;28;20059;-68
2023/10/03 01:58:34;;;;;;;37.05;18.92;;;17.40;99.90;;;;;;5015534;28;111044;-69
2023/10/03 02:01:00;;;;;;;37.33;18.98;;;17.40;99.90;;;;;;5034380;28;20048;-68
2023/10/03 02:03:28;;;;;;;34.85;18.60;;;17.40;99.90;;;;;;5011571;28;150927;-68
2023/10/03 02:05:55;;;;;;;38.75;18.42;;;17.40;99.90;;;;;;5046640;28;20518;-69
2023/10/03 02:08:23;;;;;;;40.33;19.38;;;17.50;99.90;;;;;;5010411;28;62103;-68
2023/10/03 02:10:50;;;;;;;37.20;19.20;;;17.50;99.90;;;;;;5036446;28;20051;-69
2023/10/03 02:13:17;;;;;;;36.50;18.02;;;17.50;99.90;;;;;;5013477;28;220688;-69
2023/10/03 02:16:02;;;;;;;40.17;19.52;;;17.50;99.90;;;;;;5057947;28;20120;-69
2023/10/03 02:18:28;;;;;;;37.30;19.10;;;17.50;99.90;;;;;;5013427;28;164906;-69
2023/10/03 02:21:01;;;;;;;40.15;19.02;;;17.60;99.90;;;;;;5064784;28;20045;-68
2023/10/03 02:23:27;;;;;;;36.53;17.90;;;17.60;99.90;;;;;;5013025;28;104548;-69
2023/10/03 02:25:56;;;;;;;42.03;18.80;;;17.60;99.90;;;;;;5060553;28;20522;-69
2023/10/03 02:28:22;;;;;;;39.30;18.60;;;17.60;99.90;;;;;;5017463;28;133972;-69
2023/10/03 02:30:55;;;;;;;38.28;19.13;;;17.60;99.90;;;;;;5048799;28;20052;-70
2023/10/03 02:33:22;;;;;;;35.25;17.88;;;17.60;99.90;;;;;;5010615;28;148951;-69
2023/10/03 02:35:50;;;;;;;36.03;18.02;;;17.60;99.90;;;;;;5047804;28;20037;-68
2023/10/03 02:38:24;;;;;;;41.42;19.20;;;17.60;99.90;;;;;;5020307;28;20053;-69
2023/10/03 02:41:00;;;;;;;39.72;19.02;;;17.60;99.90;;;;;;5053321;28;20060;-69
2023/10/03 02:43:28;;;;;;;36.17;19.08;;;17.60;99.90;;;;;;5011346;28;20056;-69
2023/10/03 02:45:54;;;;;;;39.35;18.38;;;17.60;99.90;;;;;;5040391;28;20056;-69
2023/10/03 02:48:21;;;;;;;35.95;17.58;;;17.70;99.90;;;;;;5018589;28;20049;-69
2023/10/03 02:50:50;;;;;;;38.50;18.48;;;17.70;99.90;;;;;;5055690;28;20064;-69
2023/10/03 02:53:20;;;;;;;39.95;18.80;;;17.70;99.90;;;;;;5006312;28;93117;-69
2023/10/03 02:55:54;;;;;;;36.22;17.98;;;17.80;99.90;;;;;;5051913;28;20059;-68
2023/10/03 02:58:20;;;;;;;36.75;18.15;;;17.80;99.90;;;;;;5015674;28;20049;-68
2023/10/03 03:00:53;;;;;;;37.22;18.20;;;17.80;99.90;;;;;;5054266;28;20542;-68
2023/10/03 03:03:21;;;;;;;34.65;17.23;;;17.80;99.90;;;;;;5014350;28;20060;-69
2023/10/03 03:05:49;;;;;;;37.38;18.02;;;17.80;99.90;;;;;;5036499;28;20060;-69
2023/10/03 03:10:51;;;;;;;33.13;17.33;;;17.90;99.90;;;;;;5059723;28;20048;-68
2023/10/03 03:13:18;;;;;;;35.63;16.42;;;17.90;99.90;;;;;;5017597;28;20049;-69
2023/10/03 03:18:31;;;;;;;35.35;17.40;;;17.80;99.90;;;;;;5013247;28;20431;-69
2023/10/03 03:20:58;;;;;;;39.85;17.77;;;17.90;99.90;;;;;;5044362;28;20434;-69
2023/10/03 03:23:36;;;;;;;34.38;16.95;;;17.90;99.90;;;;;;5020487;28;20063;-69
2023/10/03 03:28:39;;;;;;;39.35;17.17;;;17.90;99.90;;;;;;5010818;28;20056;-68
2023/10/03 03:31:42;;;;;;;35.20;17.35;;;17.90;99.90;;;;;;5053354;28;20503;-69
2023/10/03 03:34:01;;;;;;;36.08;16.83;;;17.90;99.90;;;;;;5015669;28;20053;-68
2023/10/03 03:36:30;;;;;;;35.67;16.23;;;18.00;99.90;;;;;;5057930;28;20053;-70
2023/10/03 03:39:05;;;;;;;35.08;17.27;;;18.10;99.90;;;;;;5009085;28;20057;-69
2023/10/03 03:41:32;;;;;;;32.05;15.82;;;18.10;99.90;;;;;;5056440;28;20526;-69
2023/10/03 03:43:59;;;;;;;32.70;15.93;;;18.10;99.90;;;;;;5009733;28;20507;-69
2023/10/03 03:46:29;;;;;;;35.67;17.35;;;18.10;99.90;;;;;;5051296;28;20423;-70
2023/10/03 03:48:56;;;;;;;32.88;16.98;;;18.20;99.90;;;;;;4992482;28;20523;-69
2023/10/03 03:51:23;;;;;;;35.72;16.02;;;18.20;99.90;;;;;;5048801;28;20071;-70
2023/10/03 03:53:50;;;;;;;38.03;15.95;;;18.20;99.90;;;;;;4991652;28;143198;-70
2023/10/03 03:56:19;;;;;;;36.38;17.70;;;18.20;99.90;;;;;;5059891;28;20048;-69
2023/10/03 03:58:45;;;;;;;34.72;16.60;;;18.20;99.90;;;;;;5017536;28;20427;-70
2023/10/03 04:01:19;;;;;;;32.45;15.50;;;18.20;99.90;;;;;;5060393;28;20052;-69
2023/10/03 04:03:49;;;;;;;32.75;16.67;;;18.20;99.90;;;;;;5014822;28;20445;-68
2023/10/03 04:06:16;;;;;;;35.72;16.95;;;18.20;99.90;;;;;;5056277;28;20048;-71
2023/10/03 04:08:42;;;;;;;33.17;16.17;;;18.20;99.90;;;;;;5017953;28;20044;-69
2023/10/03 04:11:08;;;;;;;32.70;16.67;;;18.20;99.90;;;;;;5053347;28;20683;-69
2023/10/03 04:13:55;;;;;;;35.20;15.73;;;18.20;99.90;;;;;;5019731;28;20075;-68
2023/10/03 04:16:27;;;;;;;40.72;16.80;;;18.20;99.90;;;;;;5055490;28;20056;-69
2023/10/03 04:18:54;;;;;;;35.40;16.23;;;18.20;99.90;;;;;;5019306;28;20501;-69
2023/10/03 04:21:21;;;;;;;32.05;15.55;;;18.20;99.90;;;;;;5030709;28;20045;-69
2023/10/03 04:23:49;;;;;;;32.25;16.13;;;18.30;99.90;;;;;;5005059;28;20048;-69
2023/10/03 04:26:15;;;;;;;34.05;15.10;;;18.30;99.90;;;;;;5045230;28;20053;-68
2023/10/03 04:28:41;;;;;;;33.85;16.13;;;18.30;99.90;;;;;;5011327;28;20117;-69
2023/10/03 04:31:08;;;;;;;32.45;15.45;;;18.30;99.90;;;;;;5046589;28;20060;-70
2023/10/03 04:33:34;;;;;;;30.92;15.98;;;18.40;99.90;;;;;;5019863;28;20036;-69
2023/10/03 04:36:09;;;;;;;33.35;15.55;;;18.30;99.90;;;;;;5056448;28;20511;-69
2023/10/03 04:38:35;;;;;;;34.10;15.60;;;18.30;99.90;;;;;;5012599;28;20044;-69
2023/10/03 04:41:09;;;;;;;33.50;15.50;;;18.30;99.90;;;;;;5043288;28;20507;-69
2023/10/03 04:43:35;;;;;;;28.50;13.38;;;18.30;99.90;;;;;;5017054;28;120869;-68
2023/10/03 04:46:02;;;;;;;31.50;15.85;;;18.40;99.90;;;;;;5038456;28;20083;-69
2023/10/03 04:48:28;;;;;;;31.60;14.75;;;18.40;99.90;;;;;;5003449;28;20052;-69
2023/10/03 04:50:54;;;;;;;38.22;15.20;;;18.50;99.90;;;;;;5031316;28;20060;-68
2023/10/03 04:53:20;;;;;;;31.73;14.68;;;18.50;99.90;;;;;;4996762;28;121719;-70
2023/10/03 04:55:49;;;;;;;31.13;14.82;;;18.60;99.90;;;;;;5060950;28;20057;-70
2023/10/03 04:58:15;;;;;;;30.23;15.10;;;18.70;99.90;;;;;;5015883;28;20064;-69
2023/10/03 05:00:45;;;;;;;30.55;14.57;;;18.70;99.90;;;;;;5047613;28;20040;-69
2023/10/03 05:03:13;;;;;;;28.33;14.00;;;18.70;99.90;;;;;;4998886;28;20050;-68
2023/10/03 05:05:39;;;;;;;34.10;15.27;;;18.70;99.90;;;;;;5035983;28;20056;-69
2023/10/03 05:08:05;;;;;;;32.30;14.10;;;18.70;99.90;;;;;;5021826;28;20058;-69
2023/10/03 05:10:33;;;;;;;30.52;13.57;;;18.70;99.90;;;;;;5045430;28;20084;-68
2023/10/03 05:12:59;;;;;;;29.30;12.70;;;18.80;99.90;;;;;;5017215;28;20533;-69
2023/10/03 05:15:26;;;;;;;29.48;13.13;;;18.70;99.90;;;;;;5050900;28;20049;-69
2023/10/03 05:17:56;;;;;;;27.17;13.02;;;18.80;99.90;;;;;;5022880;28;20048;-69
2023/10/03 05:20:34;;;;;;;36.33;13.55;;;18.80;99.90;;;;;;5068491;28;20048;-69
2023/10/03 05:23:04;;;;;;;29.42;13.20;;;18.90;99.90;;;;;;5017900;28;20041;-69
2023/10/03 05:25:36;;;;;;;28.07;12.27;;;18.90;99.90;;;;;;5058953;28;20052;-69
2023/10/03 05:28:04;;;;;;;31.33;10.15;;;19.00;99.90;;;;;;5020918;28;22312;-68
2023/10/03 05:30:33;;;;;;;27.38;11.60;;;19.00;99.90;;;;;;5062771;28;20063;-69
2023/10/03 05:32:59;;;;;;;32.95;11.98;;;19.00;99.90;;;;;;5017459;28;20071;-69
2023/10/03 05:35:26;;;;;;;29.85;11.82;;;19.10;99.90;;;;;;5061174;28;20052;-70
2023/10/03 05:37:52;;;;;;;28.95;10.88;;;19.10;99.90;;;;;;5018203;28;20554;-69
2023/10/03 05:40:20;;;;;;;30.58;11.85;;;19.10;99.90;;;;;;5059067;28;20061;-70
2023/10/03 05:42:47;;;;;;;30.50;11.25;;;19.10;99.90;;;;;;5032077;28;20690;-70
2023/10/03 05:45:15;;;;;;;35.03;11.07;;;19.20;99.90;;;;;;5036818;28;20392;-70
2023/10/03 05:47:44;;;;;;;28.60;11.10;;;19.20;99.90;;;;;;5050924;28;20052;-70
2023/10/03 05:50:10;;;;;;;37.97;11.55;;;19.20;99.90;;;;;;5036497;28;20534;-71
2023/10/03 05:52:37;;;;;;;27.58;11.85;;;19.20;99.90;;;;;;5059099;28;20534;-70
2023/10/03 05:55:04;;;;;;;34.50;11.70;;;19.20;99.90;;;;;;4991071;28;134683;-71
2023/10/03 05:57:31;;;;;;;32.17;12.18;;;19.20;99.90;;;;;;5063695;28;20061;-73
2023/10/03 05:59:57;;;;;;;31.17;11.55;;;19.20;99.90;;;;;;5021448;28;20060;-71
2023/10/03 06:02:23;;;;;;;32.75;12.05;;;19.20;99.90;;;;;;5045563;28;20060;-70
2023/10/03 06:04:50;;;;;;;25.00;9.55;;;19.20;99.90;;;;;;5026098;28;20056;-71
2023/10/03 06:07:16;;;;;;;28.83;11.30;;;19.20;99.90;;;;;;5061266;28;20583;-71
2023/10/03 06:09:42;;;;;;;31.30;11.50;;;19.20;99.90;;;;;;5002858;28;20064;-71
2023/10/03 06:12:11;;;;;;;31.15;10.38;;;19.10;99.90;;;;;;5059771;28;20052;-70
2023/10/03 06:14:39;;;;;;;28.73;11.63;;;19.10;99.90;;;;;;5001938;28;20048;-71
2023/10/03 06:17:09;;;;;;;28.05;10.63;;;19.10;99.90;;;;;;5059132;28;20061;-70
2023/10/03 06:19:37;;;;;;;28.52;9.55;;;19.00;99.90;;;;;;5002256;28;20049;-72
2023/10/03 06:22:05;;;;;;;35.03;9.32;;;19.10;99.90;;;;;;5058432;28;20028;-72
2023/10/03 06:24:31;;;;;;;30.73;8.82;;;19.00;99.90;;;;;;5005555;28;20410;-70
2023/10/03 06:26:57;;;;;;;23.88;8.05;;;19.00;99.90;;;;;;5057759;28;20060;-71
2023/10/03 06:29:24;;;;;;;19.35;7.45;;;19.00;99.90;;;;;;4994106;28;20416;-71
2023/10/03 06:31:51;;;;;;;20.95;7.47;;;19.00;99.90;;;;;;5054996;28;20052;-71
2023/10/03 06:34:18;;;;;;;23.33;8.05;;;18.90;99.90;;;;;;5018351;28;20590;-71
2023/10/03 06:36:44;;;;;;;26.58;8.10;;;18.90;99.90;;;;;;5055717;28;20064;-70
2023/10/03 06:39:12;;;;;;;22.52;7.65;;;18.90;99.90;;;;;;5008062;28;20068;-70
2023/10/03 06:41:38;;;;;;;22.98;7.38;;;18.90;99.90;;;;;;5058649;28;20396;-73
2023/10/03 06:44:04;;;;;;;19.33;7.22;;;18.90;99.90;;;;;;5010589;28;20428;-71
2023/10/03 06:46:30;;;;;;;31.08;7.30;;;18.90;99.90;;;;;;5058668;28;20057;-70
2023/10/03 06:48:57;;;;;;;23.85;7.00;;;18.80;99.90;;;;;;5013137;28;20064;-71
2023/10/03 06:51:23;;;;;;;24.25;6.57;;;18.80;99.90;;;;;;5057920;28;20056;-71
2023/10/03 06:53:49;;;;;;;28.15;6.80;;;18.80;99.90;;;;;;4994158;28;20041;-71
2023/10/03 06:56:15;;;;;;;22.77;6.82;;;18.80;99.90;;;;;;5041402;28;20056;-71
2023/10/03 06:58:41;;;;;;;24.02;6.25;;;18.80;99.90;;;;;;5012574;28;20045;-70
2023/10/03 07:01:11;;;;;;;24.48;6.00;;;18.80;99.90;;;;;;5052235;28;20091;-71
2023/10/03 07:03:40;;;;;;;20.60;5.28;;;18.80;99.90;;;;;;5013604;28;20423;-72
2023/10/03 07:06:07;;;;;;;22.85;5.72;;;18.80;99.90;;;;;;5046237;28;20056;-70
2023/10/03 07:08:34;;;;;;;19.90;4.47;;;18.80;99.90;;;;;;5003004;28;179540;-71
2023/10/03 07:11:01;;;;;;;23.08;5.53;;;18.70;99.90;;;;;;5040151;28;20060;-70
2023/10/03 07:13:27;;;;;;;24.45;5.10;;;18.70;99.90;;;;;;5024003;28;20055;-71
2023/10/03 07:15:58;;;;;;;17.73;4.72;;;18.60;99.90;;;;;;5072999;28;20056;-69
2023/10/03 07:18:24;;;;;;;19.77;5.10;;;18.50;99.90;;;;;;5017967;28;20048;-71
2023/10/03 07:20:50;;;;;;;22.50;4.85;;;18.50;99.90;;;;;;5048852;28;20059;-73
2023/10/03 07:23:19;;;;;;;18.33;4.47;;;18.50;99.90;;;;;;5015078;28;149724;-71
2023/10/03 07:25:45;;;;;;;20.85;4.50;;;18.50;99.90;;;;;;5056917;28;20049;-71
2023/10/03 07:28:12;;;;;;;15.10;3.88;;;18.40;99.90;;;;;;5013750;28;20060;-70
2023/10/03 07:30:38;;;;;;;19.75;4.65;;;18.40;99.90;;;;;;5050398;28;20056;-70
2023/10/03 07:33:05;;;;;;;18.13;4.20;;;18.40;99.90;;;;;;5016374;28;20071;-69
2023/10/03 07:35:34;;;;;;;19.27;4.32;;;18.40;99.90;;;;;;5032659;28;20052;-71
2023/10/03 07:38:00;;;;;;;17.15;4.85;;;18.30;99.90;;;;;;5019530;28;20064;-71
2023/10/03 07:40:27;;;;;;;18.75;4.72;;;18.20;99.90;;;;;;5034606;28;20045;-71
2023/10/03 07:42:53;;;;;;;19.90;6.07;;;18.20;99.90;;;;;;5018671;28;78906;-72
2023/10/03 07:45:19;;;;;;;28.25;6.15;;;18.10;99.90;;;;;;5023146;28;20057;-71
2023/10/03 07:47:46;;;;;;;19.88;5.55;;;17.90;99.90;;;;;;5043821;28;20057;-70
2023/10/03 07:50:13;;;;;;;23.08;6.03;;;17.90;99.90;;;;;;5025828;28;20044;-70
2023/10/03 07:52:41;;;;;;;20.55;6.85;;;17.80;99.90;;;;;;5054902;28;20056;-71
2023/10/03 07:55:07;;;;;;;17.10;5.07;;;17.70;99.90;;;;;;4987629;28;20061;-71
2023/10/03 07:57:34;;;;;;;26.15;5.82;;;17.60;99.90;;;;;;5062212;28;20048;-71
2023/10/03 08:00:03;;;;;;;17.92;4.93;;;17.50;99.90;;;;;;5006690;28;20065;-72
2023/10/03 08:02:32;;;;;;;18.30;4.70;;;17.50;99.90;;;;;;5056992;28;20533;-72
2023/10/03 08:05:01;;;;;;;16.45;4.90;;;17.40;99.90;;;;;;4990454;28;20061;-73
2023/10/03 08:07:28;;;;;;;18.65;5.20;;;17.30;99.90;;;;;;5054303;28;20502;-73
2023/10/03 08:09:55;;;;;;;20.63;5.63;;;17.20;99.90;;;;;;4981854;28;199934;-72
2023/10/03 08:12:24;;;;;;;19.38;4.50;;;17.20;99.90;;;;;;5045320;28;20045;-74
2023/10/03 08:14:52;;;;;;;16.48;4.55;;;17.20;99.90;;;;;;4992167;28;20049;-71
2023/10/03 08:17:19;;;;;;;18.90;5.00;;;17.10;99.90;;;;;;5049548;28;20669;-71
2023/10/03 08:19:48;;;;;;;20.95;5.47;;;17.00;99.90;;;;;;4977709;28;165063;-72
2023/10/03 08:22:15;;;;;;;18.63;4.85;;;17.20;99.90;;;;;;5059270;28;20044;-72
2023/10/03 08:24:44;;;;;;;15.45;4.35;;;17.20;99.90;;;;;;4987920;28;20168;-72
2023/10/03 08:27:18;;;;;;;17.23;4.28;;;17.20;99.90;;;;;;5051912;28;20746;-71
2023/10/03 08:29:51;;;;;;;17.33;3.92;;;17.10;99.90;;;;;;5005798;28;20041;-72
2023/10/03 08:32:17;;;;;;;23.00;4.45;;;17.00;99.90;;;;;;5069110;28;20040;-72
2023/10/03 08:34:44;;;;;;;17.80;4.18;;;16.90;99.90;;;;;;5021669;28;20088;-71
2023/10/03 08:37:21;;;;;;;17.77;3.50;;;16.80;99.90;;;;;;5060603;28;20051;-71
2023/10/03 08:39:51;;;;;;;15.20;3.50;;;16.70;99.90;;;;;;4981597;28;20049;-71
2023/10/03 08:42:20;;;;;;;18.75;3.95;;;16.70;99.90;;;;;;5062609;28;20045;-70
2023/10/03 08:44:51;;;;;;;15.02;3.00;;;16.70;99.90;;;;;;5001228;28;20048;-70
2023/10/03 08:47:28;;;;;;;13.40;2.47;;;16.60;99.90;;;;;;5062077;28;20051;-70
2023/10/03 08:50:33;;;;;;;14.23;2.45;;;16.50;99.90;;;;;;4999424;28;221856;-70
2023/10/03 08:53:13;;;;;;;12.65;2.33;;;16.60;99.90;;;;;;5011174;28;20553;-70
2023/10/03 08:55:43;;;;;;;15.18;2.30;;;16.70;99.90;;;;;;5051900;28;20052;-70
2023/10/03 08:58:13;;;;;;;10.43;1.70;;;16.70;99.90;;;;;;5021096;28;20053;-71
2023/10/03 09:00:49;;;;;;;13.27;1.70;;;16.70;99.90;;;;;;5037808;28;20299;-70
2023/10/03 09:03:19;;;;;;;13.15;1.77;;;16.70;99.90;;;;;;5017221;28;20037;-70
2023/10/03 09:05:47;;;;;;;15.73;2.07;;;16.60;99.90;;;;;;5036185;28;20045;-71
2023/10/03 09:08:15;;;;;;;10.82;1.70;;;16.60;99.90;;;;;;5014742;28;20052;-70
2023/10/03 09:10:53;;;;;;;12.63;1.88;;;16.50;99.90;;;;;;5045609;28;20515;-71
2023/10/03 09:13:23;;;;;;;7.85;1.20;;;16.50;99.90;;;;;;5019598;28;20044;-70
2023/10/03 09:15:59;;;;;;;8.82;1.10;;;16.40;99.90;;;;;;5038831;28;20060;-70
2023/10/03 09:18:42;;;;;;;9.63;1.15;;;16.20;99.90;;;;;;5017443;28;86739;-72
2023/10/03 09:21:16;;;;;;;10.07;1.10;;;15.80;99.90;;;;;;5054961;28;20059;-72
2023/10/03 09:24:01;;;;;;;8.27;1.00;;;15.80;99.90;;;;;;5015425;28;20044;-71
2023/10/03 09:26:45;;;;;;;12.52;1.83;;;15.60;99.90;;;;;;5061155;28;20045;-70
2023/10/03 09:29:18;;;;;;;7.90;1.17;;;15.50;99.90;;;;;;5002241;28;20536;-71
2023/10/03 09:31:49;;;;;;;5.47;0.65;;;15.50;99.90;;;;;;5048647;28;20535;-70
2023/10/03 09:34:16;;;;;;;9.35;1.45;;;15.40;99.90;;;;;;4998259;28;20049;-72
2023/10/03 09:36:42;;;;;;;6.90;0.82;;;15.20;99.90;;;;;;5047308;28;20422;-72
2023/10/03 09:39:20;;;;;;;6.85;0.70;;;15.20;99.90;;;;;;5013664;28;20484;-70
2023/10/03 09:41:57;;;;;;;5.70;0.70;;;15.20;99.90;;;;;;5057474;28;20057;-72
2023/10/03 09:44:29;;;;;;;7.95;0.90;;;15.00;99.90;;;;;;5000633;28;20063;-71
2023/10/03 09:47:00;;;;;;;5.85;0.90;;;14.90;99.90;;;;;;5054145;28;20061;-72
2023/10/03 09:49:38;;;;;;;8.85;0.80;;;14.90;99.90;;;;;;4993901;28;20103;-72
2023/10/03 09:52:26;;;;;;;7.78;0.88;;;14.90;99.90;;;;;;5055766;28;20056;-72
2023/10/03 09:55:00;;;;;;;6.82;0.90;;;14.90;99.90;;;;;;4989582;28;54647;-72
2023/10/03 09:57:32;;;;;;;9.30;1.20;;;15.00;99.90;;;;;;5060658;28;20411;-71
2023/10/03 09:59:58;;;;;;;9.85;1.00;;;15.00;99.90;;;;;;4995948;28;20064;-71
2023/10/03 10:02:45;;;;;;;9.43;1.30;;;15.10;99.90;;;;;;5064104;28;20410;-71
2023/10/03 10:05:21;;;;;;;11.07;1.30;;;15.20;99.90;;;;;;4992772;28;20047;-72
2023/10/03 10:08:00;;;;;;;8.65;1.40;;;15.20;99.90;;;;;;5031997;28;20083;-70
2023/10/03 10:10:26;;;;;;;8.25;1.08;;;15.30;99.90;;;;;;5036825;28;20041;-71
2023/10/03 10:13:12;;;;;;;7.65;0.98;;;15.30;99.90;;;;;;5025933;28;20044;-71
2023/10/03 10:16:01;;;;;;;11.98;1.52;;;15.40;99.90;;;;;;5038494;28;20044;-71
2023/10/03 10:18:45;;;;;;;9.18;1.10;;;15.50;99.90;;;;;;5021704;28;20593;-71
2023/10/03 10:21:20;;;;;;;8.55;1.20;;;15.50;99.90;;;;;;5043640;28;20048;-72
2023/10/03 10:24:20;;;;;;;9.90;1.25;;;15.50;99.90;;;;;;5014023;28;60142;-71
2023/10/03 10:26:54;;;;;;;9.50;1.08;;;15.60;99.90;;;;;;5063926;28;20045;-72
2023/10/03 10:29:24;;;;;;;11.23;1.23;;;15.70;99.90;;;;;;4985645;28;20057;-73
2023/10/03 10:32:00;;;;;;;10.38;1.15;;;15.80;99.90;;;;;;5056903;28;20061;-72
2023/10/03 10:34:29;;;;;;;8.32;1.40;;;15.80;99.90;;;;;;4988104;28;20044;-71
2023/10/03 10:37:01;;;;;;;8.82;1.52;;;15.90;99.90;;;;;;5061562;28;20036;-71
2023/10/03 10:39:56;;;;;;;9.75;1.50;;;15.80;99.90;;;;;;5009119;28;20567;-71
2023/10/03 10:42:25;;;;;;;9.98;1.50;;;15.80;99.90;;;;;;5063533;28;20045;-72
2023/10/03 10:45:25;;;;;;;11.32;1.30;;;15.90;99.90;;;;;;5012357;28;20593;-71
2023/10/03 10:47:51;;;;;;;10.95;1.60;;;15.80;99.90;;;;;;5019913;28;20522;-71
2023/10/03 10:50:25;;;;;;;10.52;1.50;;;15.80;99.90;;;;;;5038861;28;20418;-72
2023/10/03 10:53:05;;;;;;;9.88;1.30;;;15.80;99.90;;;;;;5018563;28;20132;-72
2023/10/03 10:55:33;;;;;;;9.63;1.70;;;15.80;99.90;;;;;;5044214;28;20134;-71
2023/10/03 10:58:13;;;;;;;14.88;2.10;;;15.90;99.90;;;;;;5018411;28;20060;-72
2023/10/03 11:00:40;;;;;;;9.45;1.58;;;16.00;99.90;;;;;;5043058;28;20063;-73
2023/10/03 11:03:07;;;;;;;10.52;1.58;;;16.10;99.90;;;;;;5022242;28;20061;-72
2023/10/03 11:05:47;;;;;;;9.30;1.60;;;16.10;99.90;;;;;;5060805;28;20048;-72
2023/10/03 11:08:14;;;;;;;12.27;1.80;;;15.90;99.90;;;;;;5000440;28;20060;-71
2023/10/03 11:10:52;;;;;;;7.97;1.23;;;15.90;99.90;;;;;;5023788;28;20625;-70
2023/10/03 11:13:19;;;;;;;7.72;1.20;;;15.70;99.90;;;;;;5014445;28;20830;-68
2023/10/03 11:15:53;;;;;;;8.88;1.70;;;15.40;99.90;;;;;;5048770;28;20048;-71
2023/10/03 11:18:33;;;;;;;12.90;1.75;;;15.20;99.90;;;;;;5013074;28;20057;-70
2023/10/03 11:21:02;;;;;;;7.22;1.30;;;15.10;99.90;;;;;;5042388;28;20067;-72
2023/10/03 11:23:29;;;;;;;10.57;1.40;;;14.90;99.90;;;;;;5014914;28;20056;-71
2023/10/03 11:26:00;;;;;;;8.63;1.30;;;14.90;99.90;;;;;;5031622;28;20064;-71
2023/10/03 11:28:29;;;;;;;8.93;1.38;;;14.80;99.90;;;;;;5013477;28;20060;-71
2023/10/03 11:31:06;;;;;;;7.78;1.25;;;14.90;99.90;;;;;;5057000;28;20078;-71
2023/10/03 11:33:50;;;;;;;7.72;1.40;;;14.80;99.90;;;;;;5009146;28;20045;-71
2023/10/03 11:36:16;;;;;;;6.75;1.25;;;14.80;99.90;;;;;;5046633;28;20079;-71
2023/10/03 11:38:50;;;;;;;8.07;1.35;;;14.70;99.90;;;;;;5014399;28;20136;-71
2023/10/03 11:41:33;;;;;;;11.02;1.90;;;14.70;99.90;;;;;;5053823;28;20062;-72
2023/10/03 11:44:00;;;;;;;12.63;1.90;;;14.60;99.90;;;;;;5019796;28;20056;-72
2023/10/03 11:46:34;;;;;;;8.75;1.77;;;14.50;99.90;;;;;;5049528;28;20068;-71
2023/10/03 11:49:01;;;;;;;10.38;1.90;;;14.50;99.90;;;;;;5000306;28;20486;-71
2023/10/03 11:51:29;;;;;;;10.05;1.90;;;14.40;99.90;;;;;;5043842;28;20052;-72
2023/10/03 11:53:55;;;;;;;9.80;2.00;;;14.40;99.90;;;;;;4999557;28;20415;-72
2023/10/03 11:56:21;;;;;;;11.65;2.20;;;14.30;99.90;;;;;;5052511;28;20127;-71
2023/10/03 11:58:47;;;;;;;9.43;1.85;;;14.30;99.90;;;;;;5006106;28;20049;-71
2023/10/03 12:01:13;;;;;;;9.50;2.10;;;14.30;99.90;;;;;;5025166;28;20936;-72
2023/10/03 12:03:40;;;;;;;10.30;2.00;;;14.20;99.90;;;;;;5010529;28;20063;-72
2023/10/03 12:06:06;;;;;;;8.77;2.00;;;14.10;99.90;;;;;;5053412;28;20407;-71
2023/10/03 12:08:32;;;;;;;10.23;1.83;;;14.10;99.90;;;;;;5000402;28;20052;-72
2023/10/03 12:10:58;;;;;;;11.85;2.20;;;14.10;99.90;;;;;;5045005;28;20056;-71
2023/10/03 12:13:24;;;;;;;9.23;2.20;;;14.00;99.90;;;;;;5009214;28;20151;-71
2023/10/03 12:15:50;;;;;;;12.10;2.30;;;13.80;99.90;;;;;;5047305;28;20060;-72
2023/10/03 12:18:17;;;;;;;11.55;2.38;;;13.80;99.90;;;;;;5016175;28;20037;-71
2023/10/03 12:20:44;;;;;;;11.07;2.28;;;13.80;99.90;;;;;;5054507;28;20056;-72
2023/10/03 12:23:10;;;;;;;10.55;2.33;;;13.70;99.90;;;;;;5017224;28;20061;-72
2023/10/03 12:25:36;;;;;;;11.50;2.60;;;13.70;99.90;;;;;;5038639;28;20041;-72
2023/10/03 12:28:02;;;;;;;10.45;2.25;;;13.70;99.90;;;;;;5015952;28;20049;-71
2023/10/03 12:30:28;;;;;;;10.52;2.38;;;13.70;99.90;;;;;;5043513;28;20040;-71
2023/10/03 12:32:54;;;;;;;12.05;2.60;;;13.90;99.90;;;;;;5015279;28;20056;-72
2023/10/03 12:35:21;;;;;;;12.20;2.60;;;14.00;99.90;;;;;;5041286;28;20068;-72
2023/10/03 12:37:48;;;;;;;10.00;2.58;;;14.10;99.90;;;;;;5039046;28;20053;-71
2023/10/03 12:40:19;;;;;;;9.65;2.30;;;14.20;99.90;;;;;;5044262;28;20067;-72
2023/10/03 12:42:49;;;;;;;13.20;2.28;;;14.20;99.90;;;;;;5043744;28;20049;-72
2023/10/03 12:45:17;;;;;;;12.07;2.25;;;14.30;99.90;;;;;;5023889;28;20044;-72
2023/10/03 12:47:48;;;;;;;10.80;2.42;;;14.40;99.90;;;;;;5037035;28;20056;-72
2023/10/03 12:50:21;;;;;;;;;;;14.50;99.90;;;;;;4978673;28;20053;-72
2023/10/03 12:52:48;;;;;;;15.32;2.65;;;14.60;99.90;;;;;;5033103;28;19948;-71
2023/10/03 12:55:16;;;;;;;11.73;2.60;;;14.60;99.90;;;;;;5024797;28;20051;-71
2023/10/03 12:57:43;;;;;;;14.07;2.70;;;14.70;99.90;;;;;;5046987;28;20493;-71